Cap Skiring, Cap Skirring Airport (GOGS)

NameCap Skirring Airport
CityCap Skiring
CountrySenegal
ICAOGOGS
IATACSK
Altitude16 m
CoordinatesGoogle Map
Live Air TrafficLiveATC.net
METARGOGS 171600Z 32010KT 9999 FEW015 32/26 Q1010
2018-10-17 16:00:00 Wind: Northwest (320°) 5.14 m/s - Visibility: > 10000 m - Temperature: 32 °C - Dew point: 26 °C - Humidity: 70.6% - Pressure: 1010 hPa

Sorry, no flights used the airport in this database.